createdAt,value
2023-11-23T00:00:09.788Z,3.2
2023-11-23T00:01:10.134Z,3.2
2023-11-23T00:02:10.445Z,3.2
2023-11-23T00:03:10.831Z,3.2
2023-11-23T00:04:11.212Z,3.2
2023-11-23T00:05:11.507Z,3.2
2023-11-23T00:06:11.789Z,3.2
2023-11-23T00:07:12.112Z,3.2
2023-11-23T00:08:12.275Z,3.2
2023-11-23T00:09:12.517Z,3.2
2023-11-23T00:10:12.932Z,3.2
2023-11-23T00:11:13.149Z,3.2
2023-11-23T00:12:13.388Z,3.2
2023-11-23T00:13:13.664Z,3.2
2023-11-23T00:14:13.841Z,3.2
2023-11-23T00:15:14.214Z,3.2
2023-11-23T00:16:14.539Z,3.2
2023-11-23T00:17:14.813Z,3.2
2023-11-23T00:18:15.364Z,3.2
2023-11-23T00:19:15.724Z,3.2
2023-11-23T00:20:15.894Z,3.2
2023-11-23T00:21:16.148Z,3.2
2023-11-23T00:22:16.471Z,3.2
2023-11-23T00:23:16.684Z,3.2
2023-11-23T00:24:16.940Z,3.2
2023-11-23T00:25:17.206Z,3.2
2023-11-23T00:26:17.473Z,3.2
2023-11-23T00:27:17.765Z,3.2
2023-11-23T00:28:17.992Z,3.2
2023-11-23T00:29:18.210Z,3.2
2023-11-23T00:30:18.573Z,3.2
2023-11-23T00:31:18.938Z,3.2
2023-11-23T00:32:19.161Z,3.2
2023-11-23T00:33:19.559Z,3.2
2023-11-23T00:34:20.201Z,3.2
2023-11-23T00:35:20.595Z,3.2
2023-11-23T00:36:20.806Z,3.2
2023-11-23T00:37:20.999Z,3.2
2023-11-23T00:38:21.221Z,3.1
2023-11-23T00:39:21.456Z,3.1
2023-11-23T00:40:21.706Z,3.1
2023-11-23T00:41:21.972Z,3.1
2023-11-23T00:42:22.227Z,3.1
2023-11-23T00:43:22.465Z,3.1
2023-11-23T00:44:22.842Z,3.1
2023-11-23T00:45:23.079Z,3.1
2023-11-23T00:46:23.315Z,3.1
2023-11-23T00:47:23.744Z,3.1
2023-11-23T00:48:24.528Z,3.1
2023-11-23T00:49:24.958Z,3.1
2023-11-23T00:50:25.295Z,3.1
2023-11-23T00:51:25.547Z,3.1
2023-11-23T00:52:25.797Z,3.1
2023-11-23T00:53:26.095Z,3.1
2023-11-23T00:54:26.291Z,3.1
2023-11-23T00:55:26.460Z,3.1
2023-11-23T00:56:26.633Z,3.1
2023-11-23T00:57:26.802Z,3.1
2023-11-23T00:58:26.963Z,3.1
2023-11-23T00:59:27.135Z,3.1
2023-11-23T01:00:27.292Z,3.1
2023-11-23T01:01:27.669Z,3.1
2023-11-23T01:02:28.140Z,3.1
2023-11-23T01:03:28.797Z,3.1
2023-11-23T01:04:29.189Z,3.1
2023-11-23T01:05:29.377Z,3.1
2023-11-23T01:06:29.587Z,3.1
2023-11-23T01:07:29.778Z,3.1
2023-11-23T01:08:29.977Z,3.1
2023-11-23T01:09:30.177Z,3.1
2023-11-23T01:10:30.346Z,3.1
2023-11-23T01:11:30.532Z,3.1
2023-11-23T01:12:30.734Z,3.1
2023-11-23T01:13:30.982Z,3.1
2023-11-23T01:14:31.236Z,3.1
2023-11-23T01:15:31.465Z,3.1
2023-11-23T01:16:31.685Z,3.1
2023-11-23T01:17:32.004Z,3.1
2023-11-23T01:18:32.399Z,3.1
2023-11-23T01:19:32.790Z,3.1
2023-11-23T01:20:32.975Z,3.1
2023-11-23T01:21:33.141Z,3.1
2023-11-23T01:22:33.338Z,3.1
2023-11-23T01:23:33.510Z,3.1
2023-11-23T01:24:33.755Z,3.1
2023-11-23T01:25:34.106Z,3.1
2023-11-23T01:26:34.290Z,3.1
2023-11-23T01:27:34.468Z,3.1
2023-11-23T01:28:34.644Z,3.1
2023-11-23T01:29:34.836Z,3.1
2023-11-23T01:30:35.005Z,3.1
2023-11-23T01:31:35.187Z,3.1
2023-11-23T01:32:35.476Z,3.1
2023-11-23T01:33:36.176Z,3.1
2023-11-23T01:34:36.570Z,3.1
2023-11-23T01:35:36.757Z,3.1
2023-11-23T01:36:36.923Z,3.1
2023-11-23T01:37:37.082Z,2.7
2023-11-23T01:38:37.291Z,2.7
2023-11-23T01:39:37.460Z,2.7
2023-11-23T01:40:37.641Z,2.7
2023-11-23T01:41:37.823Z,2.7
2023-11-23T01:42:38.037Z,2.7
2023-11-23T01:43:38.216Z,2.7
2023-11-23T01:44:38.392Z,2.7
2023-11-23T01:45:38.718Z,2.7
2023-11-23T01:46:39.408Z,2.7
2023-11-23T01:47:39.903Z,2.7
2023-11-23T01:48:40.361Z,2.7
2023-11-23T01:49:40.669Z,2.7
2023-11-23T01:50:40.931Z,2.7
2023-11-23T01:51:41.145Z,2.7
2023-11-23T01:52:41.350Z,2.7
2023-11-23T01:53:41.715Z,2.7
2023-11-23T01:54:42.088Z,2.7
2023-11-23T01:55:42.274Z,2.7
2023-11-23T01:56:42.500Z,2.7
2023-11-23T01:57:42.727Z,2.7
2023-11-23T01:58:42.935Z,2.7
2023-11-23T01:59:43.132Z,2.7
2023-11-23T02:00:43.311Z,2.7
2023-11-23T02:01:43.543Z,2.7
2023-11-23T02:02:43.947Z,2.7
2023-11-23T02:03:44.413Z,2.7
2023-11-23T02:04:44.746Z,2.7
2023-11-23T02:05:44.997Z,2.7
2023-11-23T02:06:45.177Z,2.7
2023-11-23T02:07:45.360Z,2.7
2023-11-23T02:08:45.629Z,2.7
2023-11-23T02:09:45.856Z,2.7
2023-11-23T02:10:46.039Z,2.7
2023-11-23T02:11:46.268Z,2.7
2023-11-23T02:12:46.486Z,2.7
2023-11-23T02:13:46.638Z,2.7
2023-11-23T02:14:46.870Z,2.7
2023-11-23T02:15:47.274Z,2.7
2023-11-23T02:16:47.508Z,2.7
2023-11-23T02:17:47.882Z,2.7
2023-11-23T02:18:48.561Z,2.7
2023-11-23T02:19:48.847Z,2.7
2023-11-23T02:20:49.190Z,2.7
2023-11-23T02:21:49.426Z,2.7
2023-11-23T02:22:49.717Z,2.7
2023-11-23T02:23:49.887Z,2.7
2023-11-23T02:24:50.118Z,2.7
2023-11-23T02:25:50.312Z,2.7
2023-11-23T02:26:50.540Z,2.7
2023-11-23T02:27:50.744Z,2.7
2023-11-23T02:28:50.960Z,2.7
2023-11-23T02:29:51.297Z,2.7
2023-11-23T02:30:51.476Z,2.7
2023-11-23T02:31:51.645Z,2.7
2023-11-23T02:32:51.984Z,2.7
2023-11-23T02:33:52.352Z,2.7
2023-11-23T02:34:52.609Z,2.7
2023-11-23T02:35:52.863Z,2.7
2023-11-23T02:36:53.055Z,2.7
2023-11-23T02:37:53.216Z,2.3
2023-11-23T02:38:53.477Z,2.3
2023-11-23T02:39:53.704Z,2.3
2023-11-23T02:40:53.885Z,2.3
2023-11-23T02:41:54.083Z,2.3
2023-11-23T02:42:54.306Z,2.3
2023-11-23T02:43:54.487Z,2.3
2023-11-23T02:44:54.721Z,2.3
2023-11-23T02:45:54.993Z,2.3
2023-11-23T02:46:55.217Z,2.3
2023-11-23T02:47:55.679Z,2.3
2023-11-23T02:48:56.039Z,2.3
2023-11-23T02:49:56.218Z,2.3
2023-11-23T02:50:56.436Z,2.3
2023-11-23T02:51:56.663Z,2.3
2023-11-23T02:52:56.851Z,2.3
2023-11-23T02:53:57.076Z,2.3
2023-11-23T02:54:57.476Z,2.3
2023-11-23T02:55:57.691Z,2.3
2023-11-23T02:56:57.883Z,2.3
2023-11-23T02:57:58.135Z,2.3
2023-11-23T02:58:58.319Z,2.3
2023-11-23T02:59:58.595Z,2.3
2023-11-23T03:00:58.973Z,2.3
2023-11-23T03:01:59.324Z,2.3
2023-11-23T03:02:59.778Z,2.3
2023-11-23T03:04:00.363Z,2.3
2023-11-23T03:05:00.773Z,2.3
2023-11-23T03:06:01.174Z,2.3
2023-11-23T03:07:01.404Z,2.3
2023-11-23T03:08:01.568Z,2.3
2023-11-23T03:09:01.817Z,2.3
2023-11-23T03:10:02.069Z,2.3
2023-11-23T03:11:02.250Z,2.3
2023-11-23T03:12:02.556Z,2.3
2023-11-23T03:13:02.873Z,2.3
2023-11-23T03:14:03.039Z,2.3
2023-11-23T03:15:03.270Z,2.3
2023-11-23T03:16:03.493Z,2.3
2023-11-23T03:17:03.682Z,2.3
2023-11-23T03:18:04.130Z,2.3
2023-11-23T03:19:04.806Z,2.3
2023-11-23T03:20:05.205Z,2.3
2023-11-23T03:21:05.511Z,2.3
2023-11-23T03:22:05.984Z,2.3
2023-11-23T03:23:06.267Z,2.3
2023-11-23T03:24:06.496Z,2.3
2023-11-23T03:25:06.798Z,2.3
2023-11-23T03:26:06.980Z,2.3
2023-11-23T03:27:07.199Z,2.3
2023-11-23T03:28:07.417Z,2.3
2023-11-23T03:29:07.625Z,2.3
2023-11-23T03:30:07.891Z,2.3
2023-11-23T03:31:08.143Z,2.3
2023-11-23T03:32:08.339Z,2.3
2023-11-23T03:33:08.656Z,2.3
2023-11-23T03:34:09.017Z,2.3
2023-11-23T03:35:09.192Z,2.3
2023-11-23T03:36:09.461Z,2.3
2023-11-23T03:37:09.698Z,2.3
2023-11-23T03:38:09.917Z,2.4
2023-11-23T03:39:10.224Z,2.4
2023-11-23T03:40:10.544Z,2.4
2023-11-23T03:41:10.735Z,2.4
2023-11-23T03:42:10.989Z,2.4
2023-11-23T03:43:11.251Z,2.4
2023-11-23T03:44:11.530Z,2.4
2023-11-23T03:45:11.859Z,2.4
2023-11-23T03:46:12.225Z,2.4
2023-11-23T03:47:12.421Z,2.4
2023-11-23T03:48:12.846Z,2.4
2023-11-23T03:49:13.245Z,2.4
2023-11-23T03:50:13.423Z,2.4
2023-11-23T03:51:13.702Z,2.4
2023-11-23T03:52:13.930Z,2.4
2023-11-23T03:53:14.097Z,2.4
2023-11-23T03:54:14.317Z,2.4
2023-11-23T03:55:14.601Z,2.4
2023-11-23T03:56:14.789Z,2.4
2023-11-23T03:57:14.998Z,2.4
2023-11-23T03:58:15.232Z,2.4
2023-11-23T03:59:15.399Z,2.4
2023-11-23T04:00:15.722Z,2.4
2023-11-23T04:01:16.127Z,2.4
2023-11-23T04:02:16.575Z,2.4
2023-11-23T04:03:17.144Z,2.4
2023-11-23T04:04:17.466Z,2.4
2023-11-23T04:05:17.767Z,2.4
2023-11-23T04:06:18.023Z,2.4
2023-11-23T04:07:18.269Z,2.4
2023-11-23T04:08:18.475Z,2.4
2023-11-23T04:09:18.836Z,2.4
2023-11-23T04:10:19.408Z,2.4
2023-11-23T04:11:19.567Z,2.4
2023-11-23T04:12:19.971Z,2.4
2023-11-23T04:13:20.448Z,2.4
2023-11-23T04:14:20.732Z,2.4
2023-11-23T04:15:21.097Z,2.4
2023-11-23T04:16:21.575Z,2.4
2023-11-23T04:17:21.835Z,2.4
2023-11-23T04:18:22.218Z,2.4
2023-11-23T04:19:22.515Z,2.4
2023-11-23T04:20:22.687Z,2.4
2023-11-23T04:21:22.921Z,2.4
2023-11-23T04:22:23.165Z,2.4
2023-11-23T04:23:23.345Z,2.4
2023-11-23T04:24:23.641Z,2.4
2023-11-23T04:25:23.920Z,2.4
2023-11-23T04:26:24.103Z,2.4
2023-11-23T04:27:24.358Z,2.4
2023-11-23T04:28:24.586Z,2.4
2023-11-23T04:29:24.770Z,2.4
2023-11-23T04:30:24.998Z,2.4
2023-11-23T04:31:25.276Z,2.4
2023-11-23T04:32:25.649Z,2.4
2023-11-23T04:33:26.244Z,2.4
2023-11-23T04:34:26.729Z,2.4
2023-11-23T04:35:26.948Z,2.4
2023-11-23T04:36:27.209Z,2.4
2023-11-23T04:37:27.438Z,2.4
2023-11-23T04:38:27.620Z,2.4
2023-11-23T04:39:27.911Z,2.4
2023-11-23T04:40:28.167Z,2.4
2023-11-23T04:41:28.337Z,2.4
2023-11-23T04:42:28.516Z,2.4
2023-11-23T04:43:28.691Z,2.4
2023-11-23T04:44:28.852Z,2.4
2023-11-23T04:45:29.091Z,2.4
2023-11-23T04:46:29.387Z,2.4
2023-11-23T04:47:29.739Z,2.4
2023-11-23T04:48:30.178Z,2.4
2023-11-23T04:49:30.406Z,2.4
2023-11-23T04:50:30.597Z,2.4
2023-11-23T04:51:30.773Z,2.4
2023-11-23T04:52:30.948Z,2.4
2023-11-23T04:53:31.136Z,2.4
2023-11-23T04:54:31.316Z,2.4
2023-11-23T04:55:31.507Z,2.4
2023-11-23T04:56:31.687Z,2.4
2023-11-23T04:57:31.854Z,2.4
2023-11-23T04:58:32.026Z,2.4
2023-11-23T04:59:32.262Z,2.4
2023-11-23T05:00:32.730Z,2.4
2023-11-23T05:01:33.127Z,2.4
2023-11-23T05:02:33.384Z,2.4
2023-11-23T05:03:33.711Z,2.4
2023-11-23T05:04:34.150Z,2.4
2023-11-23T05:05:34.322Z,2.4
2023-11-23T05:06:34.527Z,2.4
2023-11-23T05:07:34.693Z,2.4
2023-11-23T05:08:34.889Z,2.4
2023-11-23T05:09:35.056Z,2.4
2023-11-23T05:10:35.228Z,2.4
2023-11-23T05:11:35.408Z,2.4
2023-11-23T05:12:35.739Z,2.4
2023-11-23T05:13:35.953Z,2.4
2023-11-23T05:14:36.160Z,2.4
2023-11-23T05:15:36.363Z,2.4
2023-11-23T05:16:37.006Z,2.4
2023-11-23T05:17:37.320Z,2.4
2023-11-23T05:18:37.667Z,2.4
2023-11-23T05:19:43.428Z,2.4
2023-11-23T05:20:43.679Z,2.5
2023-11-23T05:21:43.835Z,2.5
2023-11-23T05:22:44.001Z,2.5
2023-11-23T05:23:44.195Z,2.5
2023-11-23T05:24:44.379Z,2.5
2023-11-23T05:25:44.547Z,2.5
2023-11-23T05:26:44.743Z,2.5
2023-11-23T05:27:44.929Z,2.5
2023-11-23T05:28:45.093Z,2.5
2023-11-23T05:29:50.356Z,2.5
2023-11-23T05:30:52.502Z,2.6
2023-11-23T05:31:52.722Z,2.6
2023-11-23T05:32:53.180Z,2.6
2023-11-23T05:33:53.667Z,2.6
2023-11-23T05:34:53.978Z,2.6
2023-11-23T05:35:54.205Z,2.6
2023-11-23T05:36:54.431Z,2.6
2023-11-23T05:37:54.620Z,2.6
2023-11-23T05:38:54.876Z,2.6
2023-11-23T05:39:55.298Z,2.6
2023-11-23T05:40:55.601Z,2.6
2023-11-23T05:41:55.788Z,2.6
2023-11-23T05:43:06.048Z,2.6
2023-11-23T05:44:06.747Z,2.6
2023-11-23T05:45:06.973Z,2.6
2023-11-23T05:46:07.208Z,2.6
2023-11-23T05:47:07.512Z,2.6
2023-11-23T05:48:08.115Z,2.6
2023-11-23T05:49:08.471Z,2.6
2023-11-23T05:50:08.640Z,2.6
2023-11-23T05:51:08.906Z,2.6
2023-11-23T05:52:09.104Z,2.6
2023-11-23T05:53:09.289Z,2.6
2023-11-23T05:54:09.543Z,2.6
2023-11-23T05:55:09.805Z,2.6
2023-11-23T05:56:10.001Z,2.6
2023-11-23T05:57:10.305Z,2.6
2023-11-23T05:58:10.573Z,2.6
2023-11-23T05:59:10.783Z,2.6
2023-11-23T06:00:10.980Z,2.6
2023-11-23T06:01:12.936Z,2.6
2023-11-23T06:02:13.278Z,2.6
2023-11-23T06:03:13.932Z,2.6
2023-11-23T06:04:14.783Z,2.6
2023-11-23T06:05:15.464Z,2.6
2023-11-23T06:06:15.838Z,2.6
2023-11-23T06:07:16.046Z,2.6
2023-11-23T06:08:16.214Z,2.6
2023-11-23T06:09:16.558Z,2.6
2023-11-23T06:10:16.870Z,2.6
2023-11-23T06:11:17.041Z,2.6
2023-11-23T06:12:17.260Z,2.6
2023-11-23T06:13:17.475Z,2.6
2023-11-23T06:14:17.719Z,2.6
2023-11-23T06:15:17.962Z,2.6
2023-11-23T06:16:18.267Z,2.6
2023-11-23T06:17:18.514Z,2.6
2023-11-23T06:18:18.997Z,2.6
2023-11-23T06:19:19.501Z,2.6
2023-11-23T06:20:19.869Z,2.6
2023-11-23T06:21:20.110Z,2.6
2023-11-23T06:22:20.330Z,2.6
2023-11-23T06:23:20.539Z,2.6
2023-11-23T06:24:20.837Z,2.6
2023-11-23T06:25:21.121Z,2.6
2023-11-23T06:26:21.292Z,2.6
2023-11-23T06:27:21.654Z,2.6
2023-11-23T06:28:21.908Z,2.6
2023-11-23T06:29:22.066Z,2.6
2023-11-23T06:30:22.329Z,2.6
2023-11-23T06:31:22.621Z,2.6
2023-11-23T06:32:22.944Z,2.6
2023-11-23T06:33:23.401Z,2.6
2023-11-23T06:34:23.774Z,2.6
2023-11-23T06:35:23.947Z,2.6
2023-11-23T06:36:24.175Z,2.6
2023-11-23T06:37:24.415Z,2.6
2023-11-23T06:38:24.588Z,2.9
2023-11-23T06:39:25.284Z,2.9
2023-11-23T06:40:25.875Z,2.9
2023-11-23T06:41:26.090Z,2.9
2023-11-23T06:42:26.322Z,2.9
2023-11-23T06:43:26.539Z,2.9
2023-11-23T06:44:26.767Z,2.9
2023-11-23T06:45:27.061Z,2.9
2023-11-23T06:46:27.577Z,2.9
2023-11-23T06:47:27.858Z,2.9
2023-11-23T06:48:28.236Z,2.9
2023-11-23T06:49:28.801Z,2.9
2023-11-23T06:50:29.100Z,2.9
2023-11-23T06:51:29.410Z,2.9
2023-11-23T06:52:29.670Z,2.9
2023-11-23T06:53:29.969Z,2.9
2023-11-23T06:54:30.216Z,2.9
2023-11-23T06:55:30.484Z,2.9
2023-11-23T06:56:30.652Z,2.9
2023-11-23T06:57:30.902Z,2.9
2023-11-23T06:58:31.145Z,2.9
2023-11-23T06:59:31.321Z,2.9
2023-11-23T07:00:31.665Z,2.9
2023-11-23T07:01:32.099Z,2.9
2023-11-23T07:02:32.534Z,2.9
2023-11-23T07:03:33.189Z,2.9
2023-11-23T07:04:33.690Z,2.9
2023-11-23T07:05:33.962Z,2.9
2023-11-23T07:06:34.234Z,2.9
2023-11-23T07:07:34.556Z,2.9
2023-11-23T07:08:34.732Z,2.9
2023-11-23T07:09:34.999Z,2.9
2023-11-23T07:10:35.925Z,2.9
2023-11-23T07:11:36.203Z,2.9
2023-11-23T07:12:36.397Z,2.9
2023-11-23T07:13:36.790Z,2.9
2023-11-23T07:14:37.093Z,2.9
2023-11-23T07:15:37.376Z,2.9
2023-11-23T07:16:37.907Z,2.9
2023-11-23T07:17:38.227Z,2.9
2023-11-23T07:18:38.641Z,2.9
2023-11-23T07:19:39.419Z,2.9
2023-11-23T07:20:39.708Z,2.9
2023-11-23T07:21:39.974Z,2.9
2023-11-23T07:22:40.276Z,2.9
2023-11-23T07:23:40.527Z,2.9
2023-11-23T07:24:40.702Z,2.9
2023-11-23T07:25:40.861Z,2.9
2023-11-23T07:26:41.076Z,2.9
2023-11-23T07:27:41.246Z,2.9
2023-11-23T07:28:41.447Z,2.9
2023-11-23T07:29:41.708Z,2.9
2023-11-23T07:30:42.027Z,2.9
2023-11-23T07:31:45.173Z,2.9
2023-11-23T07:32:45.390Z,2.9
2023-11-23T07:33:45.896Z,2.9
2023-11-23T07:34:46.396Z,2.9
2023-11-23T07:35:46.611Z,2.9
2023-11-23T07:36:46.797Z,2.9
2023-11-23T07:37:46.990Z,3.1
2023-11-23T07:38:47.186Z,3.1
2023-11-23T07:39:47.342Z,3.1
2023-11-23T07:40:47.499Z,3.1
2023-11-23T07:41:47.707Z,3.1
2023-11-23T07:42:47.886Z,3.1
2023-11-23T07:43:48.036Z,3.1
2023-11-23T07:44:48.224Z,3.1
2023-11-23T07:45:48.408Z,3.1
2023-11-23T07:46:48.660Z,3.1
2023-11-23T07:47:49.027Z,3.1
2023-11-23T07:48:49.440Z,3.1
2023-11-23T07:49:49.702Z,3.1
2023-11-23T07:50:50.005Z,3.1
2023-11-23T07:51:50.284Z,3.1
2023-11-23T07:52:50.562Z,3.1
2023-11-23T07:53:50.785Z,3.1
2023-11-23T07:54:51.027Z,3.1
2023-11-23T07:55:51.181Z,3.1
2023-11-23T07:56:51.371Z,3.1
2023-11-23T07:57:51.645Z,3.1
2023-11-23T07:58:51.872Z,3.1
2023-11-23T07:59:52.180Z,3.1
2023-11-23T08:00:52.656Z,3.1
2023-11-23T08:01:53.042Z,3.1
2023-11-23T08:02:53.444Z,3.1
2023-11-23T08:03:53.973Z,3.1
2023-11-23T08:04:54.616Z,3.1
2023-11-23T08:05:54.947Z,3.1
2023-11-23T08:06:55.186Z,3.1
2023-11-23T08:07:55.376Z,3.1
2023-11-23T08:08:55.586Z,3.1
2023-11-23T08:09:55.776Z,3.1
2023-11-23T08:10:55.979Z,3.1
2023-11-23T08:11:56.195Z,3.1
2023-11-23T08:12:56.463Z,3.1
2023-11-23T08:13:56.626Z,3.1
2023-11-23T08:14:56.816Z,3.1
2023-11-23T08:15:57.039Z,3.1
2023-11-23T08:16:57.408Z,3.1
2023-11-23T08:18:07.908Z,3.1
2023-11-23T08:19:09.271Z,3.6
2023-11-23T08:20:09.636Z,3.6
2023-11-23T08:21:09.899Z,3.6
2023-11-23T08:22:10.143Z,3.6
2023-11-23T08:23:10.343Z,3.6
2023-11-23T08:24:10.628Z,3.6
2023-11-23T08:25:10.836Z,3.6
2023-11-23T08:26:11.003Z,3.6
2023-11-23T08:27:11.216Z,3.6
2023-11-23T08:28:11.451Z,3.6
2023-11-23T08:29:11.626Z,3.6
2023-11-23T08:30:11.894Z,3.6
2023-11-23T08:31:12.239Z,3.6
2023-11-23T08:32:12.509Z,3.6
2023-11-23T08:33:12.781Z,3.6
2023-11-23T08:34:13.102Z,3.6
2023-11-23T08:35:13.291Z,3.6
2023-11-23T08:36:13.573Z,3.6
2023-11-23T08:37:13.820Z,3.6
2023-11-23T08:38:14.030Z,3.8
2023-11-23T08:39:14.316Z,3.8
2023-11-23T08:40:14.546Z,3.8
2023-11-23T08:41:14.732Z,3.8
2023-11-23T08:42:15.084Z,3.8
2023-11-23T08:43:15.381Z,3.8
2023-11-23T08:44:15.557Z,3.8
2023-11-23T08:45:15.799Z,3.8
2023-11-23T08:46:16.152Z,3.8
2023-11-23T08:47:16.393Z,3.8
2023-11-23T08:48:16.708Z,3.8
2023-11-23T08:49:17.052Z,3.8
2023-11-23T08:50:17.232Z,3.8
2023-11-23T08:51:17.467Z,3.8
2023-11-23T08:52:17.706Z,3.8
2023-11-23T08:53:17.901Z,3.8
2023-11-23T08:54:18.191Z,3.8
2023-11-23T08:55:18.465Z,3.8
2023-11-23T08:56:19.155Z,3.8
2023-11-23T08:57:19.447Z,3.8
2023-11-23T08:58:19.762Z,3.8
2023-11-23T08:59:20.065Z,3.8
2023-11-23T09:00:20.251Z,3.8
2023-11-23T09:01:20.556Z,3.8
2023-11-23T09:02:21.930Z,3.8
2023-11-23T09:03:22.564Z,3.8
2023-11-23T09:04:33.559Z,3.8
2023-11-23T09:05:45.734Z,4.19
2023-11-23T09:06:46.110Z,4.19
2023-11-23T09:07:46.405Z,4.19
2023-11-23T09:08:46.629Z,4.19
2023-11-23T09:09:46.845Z,4.19
2023-11-23T09:10:47.077Z,4.19
2023-11-23T09:11:47.270Z,4.19
2023-11-23T09:12:47.441Z,4.19
2023-11-23T09:13:47.617Z,4.19
2023-11-23T09:14:50.312Z,4.19
2023-11-23T09:15:50.628Z,4.19
2023-11-23T09:16:50.846Z,4.19
2023-11-23T09:17:51.063Z,4.19
2023-11-23T09:18:51.409Z,4.19
2023-11-23T09:19:51.674Z,4.19
2023-11-23T09:20:51.876Z,4.19
2023-11-23T09:21:52.056Z,4.19
2023-11-23T09:22:52.238Z,4.19
2023-11-23T09:23:52.580Z,4.19
2023-11-23T09:24:52.804Z,4.19
2023-11-23T09:25:52.989Z,4.19
2023-11-23T09:26:53.363Z,4.19
2023-11-23T09:27:53.660Z,4.19
2023-11-23T09:28:53.828Z,4.19
2023-11-23T09:29:54.053Z,4.19
2023-11-23T09:30:54.304Z,4.19
2023-11-23T09:31:54.540Z,4.19
2023-11-23T09:32:54.889Z,4.19
2023-11-23T09:33:55.319Z,4.19
2023-11-23T09:34:55.603Z,4.19
2023-11-23T09:35:55.865Z,4.19
2023-11-23T09:36:56.138Z,4.19
2023-11-23T09:37:56.360Z,4.69
2023-11-23T09:38:56.599Z,4.69
2023-11-23T09:39:56.808Z,4.69
2023-11-23T09:40:56.995Z,4.69
2023-11-23T09:41:57.193Z,4.69
2023-11-23T09:42:57.430Z,4.69
2023-11-23T09:43:57.604Z,4.69
2023-11-23T09:44:57.870Z,4.69
2023-11-23T09:45:58.306Z,4.69
2023-11-23T09:46:58.702Z,4.69
2023-11-23T09:47:59.143Z,4.69
2023-11-23T09:48:59.625Z,4.69
2023-11-23T09:49:59.834Z,4.69
2023-11-23T09:51:00.145Z,4.69
2023-11-23T09:52:00.448Z,4.69
2023-11-23T09:53:00.630Z,4.69
2023-11-23T09:54:00.982Z,4.69
2023-11-23T09:55:01.240Z,4.69
2023-11-23T09:56:01.470Z,4.69
2023-11-23T09:57:03.086Z,4.69
2023-11-23T09:58:03.396Z,4.69
2023-11-23T09:59:03.555Z,4.69
2023-11-23T10:00:03.774Z,4.69
2023-11-23T10:01:04.172Z,4.69
2023-11-23T10:02:04.603Z,4.69
2023-11-23T10:03:05.113Z,4.69
2023-11-23T10:04:05.792Z,4.69
2023-11-23T10:05:06.190Z,4.69
2023-11-23T10:06:06.656Z,4.69
2023-11-23T10:07:06.900Z,4.69
2023-11-23T10:08:07.074Z,4.69
2023-11-23T10:09:07.286Z,4.69
2023-11-23T10:10:07.489Z,4.69
2023-11-23T10:11:07.666Z,4.69
2023-11-23T10:12:07.927Z,4.69
2023-11-23T10:13:10.513Z,4.69
2023-11-23T10:14:10.911Z,4.69
2023-11-23T10:15:11.376Z,4.69
2023-11-23T10:16:11.991Z,4.69
2023-11-23T10:17:12.220Z,4.69
2023-11-23T10:18:12.570Z,4.69
2023-11-23T10:19:12.921Z,4.69
2023-11-23T10:20:13.094Z,4.69
2023-11-23T10:21:13.408Z,4.69
2023-11-23T10:22:13.665Z,4.69
2023-11-23T10:23:13.836Z,4.69
2023-11-23T10:24:14.089Z,4.69
2023-11-23T10:25:14.272Z,4.69
2023-11-23T10:26:14.577Z,4.69
2023-11-23T10:27:14.897Z,4.69
2023-11-23T10:28:15.095Z,4.69
2023-11-23T10:29:15.278Z,4.69
2023-11-23T10:30:15.602Z,4.69
2023-11-23T10:31:15.869Z,4.69
2023-11-23T10:32:16.037Z,4.69
2023-11-23T10:33:16.344Z,4.69
2023-11-23T10:34:16.712Z,4.69
2023-11-23T10:35:16.925Z,4.69
2023-11-23T10:36:17.179Z,4.69
2023-11-23T10:37:17.423Z,4.69
2023-11-23T10:38:17.643Z,5.6
2023-11-23T10:39:17.969Z,5.6
2023-11-23T10:40:18.197Z,5.6
2023-11-23T10:41:18.370Z,5.6
2023-11-23T10:42:18.626Z,5.6
2023-11-23T10:43:19.034Z,5.6
2023-11-23T10:44:19.294Z,5.6
2023-11-23T10:45:19.533Z,5.6
2023-11-23T10:46:20.506Z,5.6
2023-11-23T10:47:20.807Z,5.6
2023-11-23T10:48:21.228Z,5.6
2023-11-23T10:49:21.558Z,5.6
2023-11-23T10:50:21.734Z,5.6
2023-11-23T10:51:21.951Z,5.6
2023-11-23T10:52:22.188Z,5.6
2023-11-23T10:53:22.370Z,5.6
2023-11-23T10:54:22.615Z,5.6
2023-11-23T10:55:22.849Z,5.6
2023-11-23T10:56:23.024Z,5.6
2023-11-23T10:57:26.196Z,5.6
2023-11-23T10:58:28.884Z,6.4
2023-11-23T10:59:29.072Z,6.4
2023-11-23T11:00:29.407Z,6.6
2023-11-23T11:01:29.743Z,6.6
2023-11-23T11:02:29.978Z,6.6
2023-11-23T11:03:30.333Z,6.6
2023-11-23T11:04:30.846Z,6.6
2023-11-23T11:05:31.509Z,6.6
2023-11-23T11:06:31.795Z,6.6
2023-11-23T11:07:31.988Z,6.6
2023-11-23T11:08:32.156Z,6.6
2023-11-23T11:09:32.428Z,6.6
2023-11-23T11:10:32.667Z,7.6
2023-11-23T11:11:32.849Z,7.6
2023-11-23T11:12:33.113Z,7.6
2023-11-23T11:13:33.406Z,7.6
2023-11-23T11:14:33.640Z,7.6
2023-11-23T11:15:34.053Z,7.6
2023-11-23T11:16:34.354Z,7.6
2023-11-23T11:17:34.578Z,8.6
2023-11-23T11:18:34.920Z,8.6
2023-11-23T11:19:35.207Z,8.6
2023-11-23T11:20:35.441Z,8.6
2023-11-23T11:21:35.686Z,8.6
2023-11-23T11:22:35.921Z,8.6
2023-11-23T11:23:36.096Z,8.6
2023-11-23T11:24:36.326Z,9.6
2023-11-23T11:25:36.570Z,9.6
2023-11-23T11:26:36.754Z,9.6
2023-11-23T11:27:36.971Z,9.6
2023-11-23T11:28:37.245Z,9.6
2023-11-23T11:29:37.433Z,9.6
2023-11-23T11:30:37.805Z,9.6
2023-11-23T11:31:38.231Z,9.6
2023-11-23T11:32:38.665Z,10.6
2023-11-23T11:33:39.316Z,10.6
2023-11-23T11:34:39.566Z,10.6
2023-11-23T11:35:39.751Z,10.6
2023-11-23T11:36:40.201Z,10.6
2023-11-23T11:37:40.529Z,10.6
2023-11-23T11:38:41.050Z,10.6
2023-11-23T11:39:41.297Z,10.6
2023-11-23T11:40:41.484Z,10.6
2023-11-23T11:41:41.656Z,10.6
2023-11-23T11:42:42.010Z,10.6
2023-11-23T11:43:42.319Z,10.6
2023-11-23T11:44:42.492Z,10.6
2023-11-23T11:45:42.763Z,10.6
2023-11-23T11:46:43.167Z,11.6
2023-11-23T11:47:43.501Z,11.6
2023-11-23T11:48:43.974Z,11.6
2023-11-23T11:49:44.301Z,11.6
2023-11-23T11:50:44.627Z,11.6
2023-11-23T11:51:44.793Z,11.6
2023-11-23T11:52:44.969Z,11.6
2023-11-23T11:53:45.132Z,11.6
2023-11-23T11:54:45.405Z,11.6
2023-11-23T11:55:45.673Z,11.6
2023-11-23T11:56:45.839Z,11.6
2023-11-23T11:57:46.021Z,11.6
2023-11-23T11:58:46.192Z,11.6
2023-11-23T11:59:46.349Z,11.6
2023-11-23T12:00:46.509Z,11.6
2023-11-23T12:01:46.779Z,11.6
2023-11-23T12:02:47.249Z,11.6
2023-11-23T12:03:47.800Z,11.6
2023-11-23T12:04:48.280Z,12.6
2023-11-23T12:05:48.535Z,12.6
2023-11-23T12:06:48.730Z,12.6
2023-11-23T12:07:48.916Z,12.6
2023-11-23T12:08:49.084Z,12.6
2023-11-23T12:09:49.421Z,12.6
2023-11-23T12:10:49.681Z,12.6
2023-11-23T12:11:49.851Z,12.6
2023-11-23T12:12:50.039Z,12.6
2023-11-23T12:13:50.298Z,12.6
2023-11-23T12:14:50.498Z,12.6
2023-11-23T12:15:50.767Z,12.6
2023-11-23T12:16:51.100Z,12.6
2023-11-23T12:17:51.797Z,12.6
2023-11-23T12:18:52.342Z,12.6
2023-11-23T12:19:53.221Z,12.6
2023-11-23T12:20:53.786Z,12.6
2023-11-23T12:21:53.944Z,12.6
2023-11-23T12:22:54.123Z,12.6
2023-11-23T12:23:54.295Z,12.6
2023-11-23T12:24:54.498Z,12.6
2023-11-23T12:25:54.664Z,12.6
2023-11-23T12:26:54.845Z,13.6
2023-11-23T12:27:55.102Z,13.6
2023-11-23T12:28:55.280Z,13.6
2023-11-23T12:29:55.725Z,13.6
2023-11-23T12:30:56.041Z,13.6
2023-11-23T12:31:56.391Z,13.6
2023-11-23T12:32:56.670Z,13.6
2023-11-23T12:33:57.021Z,13.6
2023-11-23T12:34:57.296Z,13.6
2023-11-23T12:35:57.486Z,13.6
2023-11-23T12:36:57.665Z,13.6
2023-11-23T12:37:57.839Z,14.6
2023-11-23T12:38:58.013Z,14.6
2023-11-23T12:39:58.255Z,14.6
2023-11-23T12:40:58.472Z,14.6
2023-11-23T12:41:58.907Z,14.6
2023-11-23T12:42:59.146Z,14.6
2023-11-23T12:43:59.319Z,14.6
2023-11-23T12:44:59.643Z,14.6
2023-11-23T12:46:00.012Z,14.6
2023-11-23T12:47:00.478Z,14.6
2023-11-23T12:48:01.023Z,15.6
2023-11-23T12:49:01.573Z,15.6
2023-11-23T12:50:01.797Z,15.6
2023-11-23T12:51:02.076Z,15.6
2023-11-23T12:52:02.477Z,15.6
2023-11-23T12:53:02.643Z,15.6
2023-11-23T12:54:02.893Z,15.6
2023-11-23T12:55:03.124Z,15.6
2023-11-23T12:56:03.330Z,15.6
2023-11-23T12:57:03.591Z,15.6
2023-11-23T12:58:03.936Z,15.6
2023-11-23T12:59:04.121Z,15.6
2023-11-23T13:00:04.420Z,15.6
2023-11-23T13:01:04.653Z,15.6
2023-11-23T13:02:04.931Z,15.6
2023-11-23T13:03:05.316Z,15.6
2023-11-23T13:04:09.445Z,15.6
2023-11-23T13:05:10.572Z,15.4
2023-11-23T13:06:10.857Z,15.4
2023-11-23T13:07:11.186Z,15.4
2023-11-23T13:08:11.525Z,15.4
2023-11-23T13:09:11.765Z,15.4
2023-11-23T13:10:11.994Z,15.4
2023-11-23T13:11:12.186Z,15.4
2023-11-23T13:12:12.431Z,14.6
2023-11-23T13:13:12.688Z,14.6
2023-11-23T13:14:12.854Z,14.6
2023-11-23T13:15:13.163Z,14.6
2023-11-23T13:16:13.716Z,14.6
2023-11-23T13:17:13.933Z,14.6
2023-11-23T13:18:14.337Z,14.6
2023-11-23T13:19:33.645Z,14.6
2023-11-23T13:20:46.385Z,14
2023-11-23T13:21:47.207Z,13.9
2023-11-23T13:22:47.565Z,13.9
2023-11-23T13:23:47.734Z,13.9
2023-11-23T13:24:47.898Z,13.6
2023-11-23T13:25:48.064Z,13.6
2023-11-23T13:26:48.243Z,13.6
2023-11-23T13:27:48.421Z,13.6
2023-11-23T13:28:48.604Z,13.6
2023-11-23T13:29:48.783Z,13.6
2023-11-23T13:30:48.989Z,13.6
2023-11-23T13:31:49.267Z,13.6
2023-11-23T13:32:49.583Z,13.6
2023-11-23T13:33:49.910Z,13.6
2023-11-23T13:34:50.187Z,13.6
2023-11-23T13:35:50.455Z,13.6
2023-11-23T13:36:50.720Z,13.6
2023-11-23T13:37:50.939Z,13.6
2023-11-23T13:38:51.150Z,13.6
2023-11-23T13:39:51.841Z,13.6
2023-11-23T13:40:52.074Z,13.6
2023-11-23T13:41:52.225Z,13.6
2023-11-23T13:42:52.403Z,13.6
2023-11-23T13:43:52.556Z,13.6